sensor_id;sensor_type;location;lat;lon;timestamp;temperature;humidity
3100;DHT22;1560;52.746;13.474;2023-02-23T00:03:59;4.20;99.90
3100;DHT22;1560;52.746;13.474;2023-02-23T00:06:30;4.10;99.90
3100;DHT22;1560;52.746;13.474;2023-02-23T00:09:00;4.10;99.90
3100;DHT22;1560;52.746;13.474;2023-02-23T00:11:28;4.10;99.90
3100;DHT22;1560;52.746;13.474;2023-02-23T00:16:35;4.00;99.90
3100;DHT22;1560;52.746;13.474;2023-02-23T00:19:04;3.90;99.90
3100;DHT22;1560;52.746;13.474;2023-02-23T00:21:34;3.90;99.90
3100;DHT22;1560;52.746;13.474;2023-02-23T00:24:05;3.90;99.90
3100;DHT22;1560;52.746;13.474;2023-02-23T00:26:37;3.90;99.90
3100;DHT22;1560;52.746;13.474;2023-02-23T00:29:08;3.90;99.90
3100;DHT22;1560;52.746;13.474;2023-02-23T00:34:17;3.90;99.90
3100;DHT22;1560;52.746;13.474;2023-02-23T00:36:49;3.90;99.90
3100;DHT22;1560;52.746;13.474;2023-02-23T00:39:18;3.90;99.90
3100;DHT22;1560;52.746;13.474;2023-02-23T00:44:24;3.90;99.90
3100;DHT22;1560;52.746;13.474;2023-02-23T00:46:53;3.90;99.90
3100;DHT22;1560;52.746;13.474;2023-02-23T00:49:22;3.90;99.90
3100;DHT22;1560;52.746;13.474;2023-02-23T00:51:52;3.90;99.90
3100;DHT22;1560;52.746;13.474;2023-02-23T00:54:21;3.80;99.90
3100;DHT22;1560;52.746;13.474;2023-02-23T00:59:26;3.80;99.90
3100;DHT22;1560;52.746;13.474;2023-02-23T01:04:32;3.80;99.90
3100;DHT22;1560;52.746;13.474;2023-02-23T01:07:01;3.90;99.90
3100;DHT22;1560;52.746;13.474;2023-02-23T01:09:32;3.80;99.90
3100;DHT22;1560;52.746;13.474;2023-02-23T01:14:38;3.70;99.90
3100;DHT22;1560;52.746;13.474;2023-02-23T01:17:07;3.70;99.90
3100;DHT22;1560;52.746;13.474;2023-02-23T01:19:36;3.70;99.90
3100;DHT22;1560;52.746;13.474;2023-02-23T01:22:05;3.70;99.90
3100;DHT22;1560;52.746;13.474;2023-02-23T01:24:34;3.60;99.90
3100;DHT22;1560;52.746;13.474;2023-02-23T01:29:40;3.60;99.90
3100;DHT22;1560;52.746;13.474;2023-02-23T01:32:09;3.70;99.90
3100;DHT22;1560;52.746;13.474;2023-02-23T01:34:37;3.70;99.90
3100;DHT22;1560;52.746;13.474;2023-02-23T01:37:06;3.70;99.90
3100;DHT22;1560;52.746;13.474;2023-02-23T01:42:13;3.70;99.90
3100;DHT22;1560;52.746;13.474;2023-02-23T01:47:56;3.70;99.90
3100;DHT22;1560;52.746;13.474;2023-02-23T01:50:31;3.70;99.90
3100;DHT22;1560;52.746;13.474;2023-02-23T01:53:00;3.60;99.90
3100;DHT22;1560;52.746;13.474;2023-02-23T01:55:30;3.70;99.90
3100;DHT22;1560;52.746;13.474;2023-02-23T02:00:39;3.60;99.90
3100;DHT22;1560;52.746;13.474;2023-02-23T02:03:11;3.60;99.90
3100;DHT22;1560;52.746;13.474;2023-02-23T02:05:40;3.50;99.90
3100;DHT22;1560;52.746;13.474;2023-02-23T02:08:10;3.50;99.90
3100;DHT22;1560;52.746;13.474;2023-02-23T02:10:39;3.50;99.90
3100;DHT22;1560;52.746;13.474;2023-02-23T02:13:16;3.60;99.90
3100;DHT22;1560;52.746;13.474;2023-02-23T02:18:38;3.60;99.90
3100;DHT22;1560;52.746;13.474;2023-02-23T02:27:23;3.50;99.90
3100;DHT22;1560;52.746;13.474;2023-02-23T02:33:36;3.50;99.90
3100;DHT22;1560;52.746;13.474;2023-02-23T02:39:27;3.50;99.90
3100;DHT22;1560;52.746;13.474;2023-02-23T02:44:46;3.40;99.90
3100;DHT22;1560;52.746;13.474;2023-02-23T02:47:19;3.40;99.90
3100;DHT22;1560;52.746;13.474;2023-02-23T02:52:27;3.40;99.90
3100;DHT22;1560;52.746;13.474;2023-02-23T02:54:59;3.30;99.90
3100;DHT22;1560;52.746;13.474;2023-02-23T03:00:12;3.30;99.90
3100;DHT22;1560;52.746;13.474;2023-02-23T03:05:40;3.30;99.90
3100;DHT22;1560;52.746;13.474;2023-02-23T03:11:07;3.30;99.90
3100;DHT22;1560;52.746;13.474;2023-02-23T03:16:42;3.30;99.90
3100;DHT22;1560;52.746;13.474;2023-02-23T03:22:13;3.30;99.90
3100;DHT22;1560;52.746;13.474;2023-02-23T03:25:03;3.30;99.90
3100;DHT22;1560;52.746;13.474;2023-02-23T03:27:52;3.20;99.90
3100;DHT22;1560;52.746;13.474;2023-02-23T03:33:22;3.20;99.90
3100;DHT22;1560;52.746;13.474;2023-02-23T03:36:09;3.20;99.90
3100;DHT22;1560;52.746;13.474;2023-02-23T03:38:59;3.10;99.90
3100;DHT22;1560;52.746;13.474;2023-02-23T03:41:46;3.20;99.90
3100;DHT22;1560;52.746;13.474;2023-02-23T03:44:36;3.10;99.90
3100;DHT22;1560;52.746;13.474;2023-02-23T03:47:26;3.10;99.90
3100;DHT22;1560;52.746;13.474;2023-02-23T03:50:16;3.10;99.90
3100;DHT22;1560;52.746;13.474;2023-02-23T03:55:43;3.10;99.90
3100;DHT22;1560;52.746;13.474;2023-02-23T03:58:32;3.10;99.90
3100;DHT22;1560;52.746;13.474;2023-02-23T04:03:57;3.00;99.90
3100;DHT22;1560;52.746;13.474;2023-02-23T04:06:46;3.00;99.90
3100;DHT22;1560;52.746;13.474;2023-02-23T04:09:33;2.90;99.90
3100;DHT22;1560;52.746;13.474;2023-02-23T04:12:23;2.90;99.90
3100;DHT22;1560;52.746;13.474;2023-02-23T04:17:46;2.90;99.90
3100;DHT22;1560;52.746;13.474;2023-02-23T04:20:16;2.90;99.90
3100;DHT22;1560;52.746;13.474;2023-02-23T04:22:44;2.90;99.90
3100;DHT22;1560;52.746;13.474;2023-02-23T04:27:50;2.90;99.90
3100;DHT22;1560;52.746;13.474;2023-02-23T04:30:19;2.90;99.90
3100;DHT22;1560;52.746;13.474;2023-02-23T04:35:26;2.90;99.90
3100;DHT22;1560;52.746;13.474;2023-02-23T04:40:35;2.80;99.90
3100;DHT22;1560;52.746;13.474;2023-02-23T04:45:41;2.80;99.90
3100;DHT22;1560;52.746;13.474;2023-02-23T04:48:11;2.70;99.90
3100;DHT22;1560;52.746;13.474;2023-02-23T04:50:40;2.70;99.90
3100;DHT22;1560;52.746;13.474;2023-02-23T04:55:46;2.80;99.90
3100;DHT22;1560;52.746;13.474;2023-02-23T05:00:52;2.70;99.90
3100;DHT22;1560;52.746;13.474;2023-02-23T05:03:21;2.70;99.90
3100;DHT22;1560;52.746;13.474;2023-02-23T05:05:50;2.70;99.90
3100;DHT22;1560;52.746;13.474;2023-02-23T05:08:18;2.60;99.90
3100;DHT22;1560;52.746;13.474;2023-02-23T05:10:47;2.60;99.90
3100;DHT22;1560;52.746;13.474;2023-02-23T05:15:56;2.60;99.90
3100;DHT22;1560;52.746;13.474;2023-02-23T05:18:25;2.60;99.90
3100;DHT22;1560;52.746;13.474;2023-02-23T05:21:00;2.60;99.90
3100;DHT22;1560;52.746;13.474;2023-02-23T05:26:11;2.50;99.90
3100;DHT22;1560;52.746;13.474;2023-02-23T05:31:28;2.40;99.90
3100;DHT22;1560;52.746;13.474;2023-02-23T05:36:37;2.50;99.90
3100;DHT22;1560;52.746;13.474;2023-02-23T05:39:06;2.50;99.90
3100;DHT22;1560;52.746;13.474;2023-02-23T05:41:35;2.40;99.90
3100;DHT22;1560;52.746;13.474;2023-02-23T05:44:04;2.40;99.90
3100;DHT22;1560;52.746;13.474;2023-02-23T05:46:33;2.40;99.90
3100;DHT22;1560;52.746;13.474;2023-02-23T05:51:48;2.50;99.90
3100;DHT22;1560;52.746;13.474;2023-02-23T05:56:58;2.40;99.90
3100;DHT22;1560;52.746;13.474;2023-02-23T05:59:28;2.40;99.90
3100;DHT22;1560;52.746;13.474;2023-02-23T06:05:19;2.40;99.90
3100;DHT22;1560;52.746;13.474;2023-02-23T06:07:47;2.40;99.90
3100;DHT22;1560;52.746;13.474;2023-02-23T06:23:23;2.40;99.90
3100;DHT22;1560;52.746;13.474;2023-02-23T06:25:52;2.30;99.90
3100;DHT22;1560;52.746;13.474;2023-02-23T06:28:21;2.30;99.90
3100;DHT22;1560;52.746;13.474;2023-02-23T06:30:52;2.20;99.90
3100;DHT22;1560;52.746;13.474;2023-02-23T06:33:21;2.20;99.90
3100;DHT22;1560;52.746;13.474;2023-02-23T06:35:50;2.20;99.90
3100;DHT22;1560;52.746;13.474;2023-02-23T06:40:56;2.20;99.90
3100;DHT22;1560;52.746;13.474;2023-02-23T06:43:25;2.20;99.90
3100;DHT22;1560;52.746;13.474;2023-02-23T06:45:55;2.30;99.90
3100;DHT22;1560;52.746;13.474;2023-02-23T06:48:24;2.30;99.90
3100;DHT22;1560;52.746;13.474;2023-02-23T06:50:57;2.30;99.90
3100;DHT22;1560;52.746;13.474;2023-02-23T06:53:26;2.30;99.90
3100;DHT22;1560;52.746;13.474;2023-02-23T06:58:31;2.30;99.90
3100;DHT22;1560;52.746;13.474;2023-02-23T07:01:00;2.30;99.90
3100;DHT22;1560;52.746;13.474;2023-02-23T07:03:29;2.30;99.90
3100;DHT22;1560;52.746;13.474;2023-02-23T07:05:58;2.30;99.90
3100;DHT22;1560;52.746;13.474;2023-02-23T07:08:27;2.30;99.90
3100;DHT22;1560;52.746;13.474;2023-02-23T07:10:56;2.40;99.90
3100;DHT22;1560;52.746;13.474;2023-02-23T07:13:26;2.40;99.90
3100;DHT22;1560;52.746;13.474;2023-02-23T07:15:57;2.30;99.90
3100;DHT22;1560;52.746;13.474;2023-02-23T07:18:26;2.30;99.90
3100;DHT22;1560;52.746;13.474;2023-02-23T07:20:55;2.40;99.90
3100;DHT22;1560;52.746;13.474;2023-02-23T07:23:24;2.40;99.90
3100;DHT22;1560;52.746;13.474;2023-02-23T07:25:53;2.40;99.90
3100;DHT22;1560;52.746;13.474;2023-02-23T07:31:06;2.50;99.90
3100;DHT22;1560;52.746;13.474;2023-02-23T07:33:35;2.50;99.90
3100;DHT22;1560;52.746;13.474;2023-02-23T07:36:05;2.50;99.90
3100;DHT22;1560;52.746;13.474;2023-02-23T07:38:34;2.50;99.90
3100;DHT22;1560;52.746;13.474;2023-02-23T07:43:43;2.60;99.90
3100;DHT22;1560;52.746;13.474;2023-02-23T07:46:12;2.70;99.90
3100;DHT22;1560;52.746;13.474;2023-02-23T07:51:18;2.70;99.90
3100;DHT22;1560;52.746;13.474;2023-02-23T07:53:47;2.70;99.90
3100;DHT22;1560;52.746;13.474;2023-02-23T07:58:54;2.80;99.90
3100;DHT22;1560;52.746;13.474;2023-02-23T08:03:59;2.90;99.90
3100;DHT22;1560;52.746;13.474;2023-02-23T08:06:28;2.90;99.90
3100;DHT22;1560;52.746;13.474;2023-02-23T08:08:58;2.90;99.90
3100;DHT22;1560;52.746;13.474;2023-02-23T08:11:28;3.00;99.90
3100;DHT22;1560;52.746;13.474;2023-02-23T08:13:57;3.00;99.90
3100;DHT22;1560;52.746;13.474;2023-02-23T08:16:28;3.10;99.90
3100;DHT22;1560;52.746;13.474;2023-02-23T08:18:57;3.10;99.90
3100;DHT22;1560;52.746;13.474;2023-02-23T08:21:27;3.20;99.90
3100;DHT22;1560;52.746;13.474;2023-02-23T08:23:56;3.30;99.90
3100;DHT22;1560;52.746;13.474;2023-02-23T08:26:25;3.30;99.90
3100;DHT22;1560;52.746;13.474;2023-02-23T08:28:54;3.40;99.90
3100;DHT22;1560;52.746;13.474;2023-02-23T08:31:23;3.50;99.90
3100;DHT22;1560;52.746;13.474;2023-02-23T08:33:53;3.60;99.90
3100;DHT22;1560;52.746;13.474;2023-02-23T08:36:22;3.60;99.90
3100;DHT22;1560;52.746;13.474;2023-02-23T08:38:51;3.70;99.90
3100;DHT22;1560;52.746;13.474;2023-02-23T08:43:58;3.80;99.90
3100;DHT22;1560;52.746;13.474;2023-02-23T08:46:27;3.90;99.90
3100;DHT22;1560;52.746;13.474;2023-02-23T08:48:57;3.90;99.90
3100;DHT22;1560;52.746;13.474;2023-02-23T08:51:25;4.00;99.90
3100;DHT22;1560;52.746;13.474;2023-02-23T08:53:54;4.10;99.90
3100;DHT22;1560;52.746;13.474;2023-02-23T08:56:23;4.10;99.90
3100;DHT22;1560;52.746;13.474;2023-02-23T08:58:52;4.20;99.90
3100;DHT22;1560;52.746;13.474;2023-02-23T09:01:21;4.30;99.90
3100;DHT22;1560;52.746;13.474;2023-02-23T09:03:50;4.30;99.90
3100;DHT22;1560;52.746;13.474;2023-02-23T09:06:21;4.40;99.90
3100;DHT22;1560;52.746;13.474;2023-02-23T09:08:52;4.50;99.90
3100;DHT22;1560;52.746;13.474;2023-02-23T09:13:58;4.70;99.90
3100;DHT22;1560;52.746;13.474;2023-02-23T09:16:27;4.80;99.90
3100;DHT22;1560;52.746;13.474;2023-02-23T09:18:56;4.80;99.90
3100;DHT22;1560;52.746;13.474;2023-02-23T09:21:27;4.90;99.90
3100;DHT22;1560;52.746;13.474;2023-02-23T09:23:56;4.90;99.90
3100;DHT22;1560;52.746;13.474;2023-02-23T09:29:02;5.10;99.90
3100;DHT22;1560;52.746;13.474;2023-02-23T09:31:31;5.20;99.90
3100;DHT22;1560;52.746;13.474;2023-02-23T09:34:00;5.30;99.90
3100;DHT22;1560;52.746;13.474;2023-02-23T09:36:29;5.30;99.90
3100;DHT22;1560;52.746;13.474;2023-02-23T09:38:58;5.40;99.90
3100;DHT22;1560;52.746;13.474;2023-02-23T09:44:35;5.50;99.90
3100;DHT22;1560;52.746;13.474;2023-02-23T09:47:11;5.60;99.90
3100;DHT22;1560;52.746;13.474;2023-02-23T09:49:41;5.60;99.90
3100;DHT22;1560;52.746;13.474;2023-02-23T09:52:14;5.70;99.90
3100;DHT22;1560;52.746;13.474;2023-02-23T09:54:43;5.70;99.90
3100;DHT22;1560;52.746;13.474;2023-02-23T09:57:15;5.70;99.90
3100;DHT22;1560;52.746;13.474;2023-02-23T09:59:44;5.80;99.90
3100;DHT22;1560;52.746;13.474;2023-02-23T10:02:21;5.90;99.90
3100;DHT22;1560;52.746;13.474;2023-02-23T10:04:53;5.90;99.90
3100;DHT22;1560;52.746;13.474;2023-02-23T10:07:26;6.00;99.90
3100;DHT22;1560;52.746;13.474;2023-02-23T10:10:15;6.00;99.90
3100;DHT22;1560;52.746;13.474;2023-02-23T10:12:49;6.10;99.90
3100;DHT22;1560;52.746;13.474;2023-02-23T10:18:03;6.20;99.90
3100;DHT22;1560;52.746;13.474;2023-02-23T10:23:11;6.40;99.90
3100;DHT22;1560;52.746;13.474;2023-02-23T10:25:44;6.50;99.90
3100;DHT22;1560;52.746;13.474;2023-02-23T10:28:16;6.60;99.90
3100;DHT22;1560;52.746;13.474;2023-02-23T10:30:47;6.70;99.90
3100;DHT22;1560;52.746;13.474;2023-02-23T10:35:56;6.90;99.90
3100;DHT22;1560;52.746;13.474;2023-02-23T10:38:26;7.00;99.90
3100;DHT22;1560;52.746;13.474;2023-02-23T10:40:56;7.10;99.90
3100;DHT22;1560;52.746;13.474;2023-02-23T10:43:25;7.20;99.90
3100;DHT22;1560;52.746;13.474;2023-02-23T10:45:55;7.30;99.90
3100;DHT22;1560;52.746;13.474;2023-02-23T10:48:28;7.40;99.90
3100;DHT22;1560;52.746;13.474;2023-02-23T10:53:34;7.40;99.90
3100;DHT22;1560;52.746;13.474;2023-02-23T10:56:08;7.40;99.90
3100;DHT22;1560;52.746;13.474;2023-02-23T10:58:42;7.40;99.90
3100;DHT22;1560;52.746;13.474;2023-02-23T11:03:51;7.50;89.60
3100;DHT22;1560;52.746;13.474;2023-02-23T11:09:22;7.60;99.90
3100;DHT22;1560;52.746;13.474;2023-02-23T11:11:57;7.70;99.90
3100;DHT22;1560;52.746;13.474;2023-02-23T11:17:03;7.80;94.50
3100;DHT22;1560;52.746;13.474;2023-02-23T11:19:34;7.80;25.60
3100;DHT22;1560;52.746;13.474;2023-02-23T11:22:05;7.90;45.80
3100;DHT22;1560;52.746;13.474;2023-02-23T11:24:36;7.90;33.80
3100;DHT22;1560;52.746;13.474;2023-02-23T11:27:17;8.00;10.00
3100;DHT22;1560;52.746;13.474;2023-02-23T11:29:42;8.00;3.50
3100;DHT22;1560;52.746;13.474;2023-02-23T11:35:12;8.30;1.00
3100;DHT22;1560;52.746;13.474;2023-02-23T11:37:39;8.30;22.40
3100;DHT22;1560;52.746;13.474;2023-02-23T11:42:56;8.50;1.00
3100;DHT22;1560;52.746;13.474;2023-02-23T11:45:26;8.60;1.00
3100;DHT22;1560;52.746;13.474;2023-02-23T11:47:58;8.60;1.00
3100;DHT22;1560;52.746;13.474;2023-02-23T11:50:30;8.60;1.00
3100;DHT22;1560;52.746;13.474;2023-02-23T11:53:03;8.60;1.00
3100;DHT22;1560;52.746;13.474;2023-02-23T11:55:34;8.60;1.00
3100;DHT22;1560;52.746;13.474;2023-02-23T11:58:09;8.60;1.00
3100;DHT22;1560;52.746;13.474;2023-02-23T12:00:40;8.70;1.00
3100;DHT22;1560;52.746;13.474;2023-02-23T12:03:15;8.70;1.00
3100;DHT22;1560;52.746;13.474;2023-02-23T12:05:45;8.70;1.00
3100;DHT22;1560;52.746;13.474;2023-02-23T12:08:17;8.80;1.00
3100;DHT22;1560;52.746;13.474;2023-02-23T12:10:48;8.90;1.00
3100;DHT22;1560;52.746;13.474;2023-02-23T12:13:24;9.00;1.00
3100;DHT22;1560;52.746;13.474;2023-02-23T12:15:56;9.00;1.00
3100;DHT22;1560;52.746;13.474;2023-02-23T12:21:14;9.10;1.00
3100;DHT22;1560;52.746;13.474;2023-02-23T12:23:45;9.10;1.00
3100;DHT22;1560;52.746;13.474;2023-02-23T12:26:18;9.20;1.00
3100;DHT22;1560;52.746;13.474;2023-02-23T12:28:51;9.20;1.00
3100;DHT22;1560;52.746;13.474;2023-02-23T12:34:03;9.20;1.00
3100;DHT22;1560;52.746;13.474;2023-02-23T12:36:35;9.30;1.00
3100;DHT22;1560;52.746;13.474;2023-02-23T12:41:47;9.40;1.00
3100;DHT22;1560;52.746;13.474;2023-02-23T12:44:23;9.50;1.00
3100;DHT22;1560;52.746;13.474;2023-02-23T12:46:52;9.60;1.00
3100;DHT22;1560;52.746;13.474;2023-02-23T12:49:26;9.70;1.00
3100;DHT22;1560;52.746;13.474;2023-02-23T12:51:58;9.70;1.00
3100;DHT22;1560;52.746;13.474;2023-02-23T13:07:41;9.90;99.90
3100;DHT22;1560;52.746;13.474;2023-02-23T13:12:55;10.10;87.00
3100;DHT22;1560;52.746;13.474;2023-02-23T13:15:31;10.00;99.90
3100;DHT22;1560;52.746;13.474;2023-02-23T13:18:02;10.00;99.90
3100;DHT22;1560;52.746;13.474;2023-02-23T13:23:15;10.00;99.90
3100;DHT22;1560;52.746;13.474;2023-02-23T13:25:50;10.00;99.90
3100;DHT22;1560;52.746;13.474;2023-02-23T13:28:27;10.10;99.90
3100;DHT22;1560;52.746;13.474;2023-02-23T13:30:55;10.10;99.90
3100;DHT22;1560;52.746;13.474;2023-02-23T13:33:26;10.10;99.90
3100;DHT22;1560;52.746;13.474;2023-02-23T13:35:58;10.10;99.90
3100;DHT22;1560;52.746;13.474;2023-02-23T13:38:33;10.10;99.90
3100;DHT22;1560;52.746;13.474;2023-02-23T13:41:06;10.10;99.90
3100;DHT22;1560;52.746;13.474;2023-02-23T13:43:41;10.10;99.90
3100;DHT22;1560;52.746;13.474;2023-02-23T13:46:18;10.10;99.90
3100;DHT22;1560;52.746;13.474;2023-02-23T13:48:52;10.10;99.90
3100;DHT22;1560;52.746;13.474;2023-02-23T13:51:29;10.10;99.90
3100;DHT22;1560;52.746;13.474;2023-02-23T13:54:04;10.20;99.90
3100;DHT22;1560;52.746;13.474;2023-02-23T13:59:19;10.10;99.90
3100;DHT22;1560;52.746;13.474;2023-02-23T14:01:50;10.10;99.90
3100;DHT22;1560;52.746;13.474;2023-02-23T14:04:23;10.10;99.90
3100;DHT22;1560;52.746;13.474;2023-02-23T14:09:33;10.00;99.90
3100;DHT22;1560;52.746;13.474;2023-02-23T14:12:13;10.00;99.90
3100;DHT22;1560;52.746;13.474;2023-02-23T14:14:46;10.00;99.90
3100;DHT22;1560;52.746;13.474;2023-02-23T14:20:22;9.90;99.90
3100;DHT22;1560;52.746;13.474;2023-02-23T14:26:34;9.90;99.90
3100;DHT22;1560;52.746;13.474;2023-02-23T14:32:00;9.80;99.90
3100;DHT22;1560;52.746;13.474;2023-02-23T14:34:50;9.70;99.90
3100;DHT22;1560;52.746;13.474;2023-02-23T14:37:32;9.70;99.90
3100;DHT22;1560;52.746;13.474;2023-02-23T14:40:05;9.70;99.90
3100;DHT22;1560;52.746;13.474;2023-02-23T14:45:19;9.60;99.90
3100;DHT22;1560;52.746;13.474;2023-02-23T14:47:51;9.60;99.90
3100;DHT22;1560;52.746;13.474;2023-02-23T14:50:26;9.50;99.90
3100;DHT22;1560;52.746;13.474;2023-02-23T14:52:56;9.50;99.90
3100;DHT22;1560;52.746;13.474;2023-02-23T14:58:22;9.40;99.90
3100;DHT22;1560;52.746;13.474;2023-02-23T15:00:51;9.40;99.90
3100;DHT22;1560;52.746;13.474;2023-02-23T15:03:21;9.40;99.90
3100;DHT22;1560;52.746;13.474;2023-02-23T15:05:54;9.40;99.90
3100;DHT22;1560;52.746;13.474;2023-02-23T15:08:26;9.40;99.90
3100;DHT22;1560;52.746;13.474;2023-02-23T15:13:37;9.30;99.90
3100;DHT22;1560;52.746;13.474;2023-02-23T15:16:11;9.30;99.90
3100;DHT22;1560;52.746;13.474;2023-02-23T15:22:00;9.20;99.90
3100;DHT22;1560;52.746;13.474;2023-02-23T15:24:40;9.20;99.90
3100;DHT22;1560;52.746;13.474;2023-02-23T15:27:03;9.20;99.90
3100;DHT22;1560;52.746;13.474;2023-02-23T15:29:34;9.10;99.90
3100;DHT22;1560;52.746;13.474;2023-02-23T15:32:17;9.10;99.90
3100;DHT22;1560;52.746;13.474;2023-02-23T16:56:38;8.60;99.90
3100;DHT22;1560;52.746;13.474;2023-02-23T16:59:13;8.60;99.90
3100;DHT22;1560;52.746;13.474;2023-02-23T17:04:44;8.50;99.90
3100;DHT22;1560;52.746;13.474;2023-02-23T17:07:20;8.50;99.90
3100;DHT22;1560;52.746;13.474;2023-02-23T17:09:50;8.50;99.90
3100;DHT22;1560;52.746;13.474;2023-02-23T17:12:19;8.50;99.90
3100;DHT22;1560;52.746;13.474;2023-02-23T17:28:21;8.50;99.90
3100;DHT22;1560;52.746;13.474;2023-02-23T17:30:51;8.30;99.90
3100;DHT22;1560;52.746;13.474;2023-02-23T17:33:20;8.40;99.90
3100;DHT22;1560;52.746;13.474;2023-02-23T17:35:49;8.30;99.90
3100;DHT22;1560;52.746;13.474;2023-02-23T17:38:18;8.30;99.90
3100;DHT22;1560;52.746;13.474;2023-02-23T17:40:48;8.30;99.90
3100;DHT22;1560;52.746;13.474;2023-02-23T17:45:53;8.30;99.90
3100;DHT22;1560;52.746;13.474;2023-02-23T17:54:38;8.20;99.90
3100;DHT22;1560;52.746;13.474;2023-02-23T17:57:07;8.10;99.90
3100;DHT22;1560;52.746;13.474;2023-02-23T17:59:36;8.10;99.90
3100;DHT22;1560;52.746;13.474;2023-02-23T18:02:07;8.10;99.90
3100;DHT22;1560;52.746;13.474;2023-02-23T18:07:13;8.10;99.90
3100;DHT22;1560;52.746;13.474;2023-02-23T18:09:42;8.10;99.90
3100;DHT22;1560;52.746;13.474;2023-02-23T18:12:11;8.00;99.90
3100;DHT22;1560;52.746;13.474;2023-02-23T18:17:17;8.10;99.90
3100;DHT22;1560;52.746;13.474;2023-02-23T18:22:22;8.00;99.90
3100;DHT22;1560;52.746;13.474;2023-02-23T18:24:51;8.00;99.90
3100;DHT22;1560;52.746;13.474;2023-02-23T18:27:26;8.00;99.90
3100;DHT22;1560;52.746;13.474;2023-02-23T18:32:33;8.00;99.90
3100;DHT22;1560;52.746;13.474;2023-02-23T18:35:02;8.00;99.90
3100;DHT22;1560;52.746;13.474;2023-02-23T18:37:31;8.00;99.90
3100;DHT22;1560;52.746;13.474;2023-02-23T18:42:38;8.00;99.90
3100;DHT22;1560;52.746;13.474;2023-02-23T18:45:08;8.00;99.90
3100;DHT22;1560;52.746;13.474;2023-02-23T18:47:39;8.00;99.90
3100;DHT22;1560;52.746;13.474;2023-02-23T18:50:10;8.00;99.90
3100;DHT22;1560;52.746;13.474;2023-02-23T18:52:41;8.00;99.90
3100;DHT22;1560;52.746;13.474;2023-02-23T18:55:11;8.00;99.90
3100;DHT22;1560;52.746;13.474;2023-02-23T18:57:40;8.00;99.90
3100;DHT22;1560;52.746;13.474;2023-02-23T19:00:12;8.00;99.90
3100;DHT22;1560;52.746;13.474;2023-02-23T19:05:19;8.00;99.90
3100;DHT22;1560;52.746;13.474;2023-02-23T19:07:48;7.90;99.90
3100;DHT22;1560;52.746;13.474;2023-02-23T19:10:17;8.00;99.90
3100;DHT22;1560;52.746;13.474;2023-02-23T19:15:22;8.00;99.90
3100;DHT22;1560;52.746;13.474;2023-02-23T19:20:28;7.90;99.90
3100;DHT22;1560;52.746;13.474;2023-02-23T19:23:01;7.90;99.90
3100;DHT22;1560;52.746;13.474;2023-02-23T19:25:31;7.90;99.90
3100;DHT22;1560;52.746;13.474;2023-02-23T19:28:02;7.90;99.90
3100;DHT22;1560;52.746;13.474;2023-02-23T19:30:31;7.90;99.90
3100;DHT22;1560;52.746;13.474;2023-02-23T19:35:38;7.80;99.90
3100;DHT22;1560;52.746;13.474;2023-02-23T19:38:08;7.80;99.90
3100;DHT22;1560;52.746;13.474;2023-02-23T19:43:14;7.70;99.90
3100;DHT22;1560;52.746;13.474;2023-02-23T19:45:43;7.70;99.90
3100;DHT22;1560;52.746;13.474;2023-02-23T19:48:14;7.60;99.90
3100;DHT22;1560;52.746;13.474;2023-02-23T19:53:22;7.60;99.90
3100;DHT22;1560;52.746;13.474;2023-02-23T19:55:59;7.50;99.90
3100;DHT22;1560;52.746;13.474;2023-02-23T19:58:29;7.50;99.90
3100;DHT22;1560;52.746;13.474;2023-02-23T20:03:39;7.40;99.90
3100;DHT22;1560;52.746;13.474;2023-02-23T20:06:11;7.40;99.90
3100;DHT22;1560;52.746;13.474;2023-02-23T20:11:18;7.40;99.90
3100;DHT22;1560;52.746;13.474;2023-02-23T20:16:25;7.40;99.90
3100;DHT22;1560;52.746;13.474;2023-02-23T20:18:56;7.40;99.90
3100;DHT22;1560;52.746;13.474;2023-02-23T20:21:26;7.30;99.90
3100;DHT22;1560;52.746;13.474;2023-02-23T20:23:56;7.30;99.90
3100;DHT22;1560;52.746;13.474;2023-02-23T20:26:27;7.30;99.90
3100;DHT22;1560;52.746;13.474;2023-02-23T20:31:36;7.20;99.90
3100;DHT22;1560;52.746;13.474;2023-02-23T20:36:45;7.10;99.90
3100;DHT22;1560;52.746;13.474;2023-02-23T20:39:14;7.10;99.90
3100;DHT22;1560;52.746;13.474;2023-02-23T20:41:43;7.10;99.90
3100;DHT22;1560;52.746;13.474;2023-02-23T20:44:15;7.10;99.90
3100;DHT22;1560;52.746;13.474;2023-02-23T20:49:21;7.10;99.90
3100;DHT22;1560;52.746;13.474;2023-02-23T20:54:28;7.10;99.90
3100;DHT22;1560;52.746;13.474;2023-02-23T20:56:57;7.10;99.90
3100;DHT22;1560;52.746;13.474;2023-02-23T20:59:27;7.10;99.90
3100;DHT22;1560;52.746;13.474;2023-02-23T21:04:34;7.00;99.90
3100;DHT22;1560;52.746;13.474;2023-02-23T21:09:43;7.00;99.90
3100;DHT22;1560;52.746;13.474;2023-02-23T21:12:12;6.90;99.90
3100;DHT22;1560;52.746;13.474;2023-02-23T21:14:41;7.00;99.90
3100;DHT22;1560;52.746;13.474;2023-02-23T21:19:46;6.90;99.90
3100;DHT22;1560;52.746;13.474;2023-02-23T21:24:52;6.80;99.90
3100;DHT22;1560;52.746;13.474;2023-02-23T21:27:21;6.90;99.90
3100;DHT22;1560;52.746;13.474;2023-02-23T21:32:27;6.90;99.90
3100;DHT22;1560;52.746;13.474;2023-02-23T21:37:36;6.90;99.90
3100;DHT22;1560;52.746;13.474;2023-02-23T21:40:09;6.90;99.90
3100;DHT22;1560;52.746;13.474;2023-02-23T21:42:40;6.80;99.90
3100;DHT22;1560;52.746;13.474;2023-02-23T21:47:48;6.80;99.90
3100;DHT22;1560;52.746;13.474;2023-02-23T21:50:17;6.70;99.90
3100;DHT22;1560;52.746;13.474;2023-02-23T21:52:46;6.70;99.90
3100;DHT22;1560;52.746;13.474;2023-02-23T21:55:17;6.70;99.90
3100;DHT22;1560;52.746;13.474;2023-02-23T21:57:46;6.70;99.90
3100;DHT22;1560;52.746;13.474;2023-02-23T22:00:16;6.70;99.90
3100;DHT22;1560;52.746;13.474;2023-02-23T22:05:23;6.70;99.90
3100;DHT22;1560;52.746;13.474;2023-02-23T22:10:31;6.70;99.90
3100;DHT22;1560;52.746;13.474;2023-02-23T22:13:00;6.70;99.90
3100;DHT22;1560;52.746;13.474;2023-02-23T22:15:30;6.70;99.90
3100;DHT22;1560;52.746;13.474;2023-02-23T22:20:36;6.70;99.90
3100;DHT22;1560;52.746;13.474;2023-02-23T22:25:41;6.70;99.90
3100;DHT22;1560;52.746;13.474;2023-02-23T22:30:50;6.60;99.90
3100;DHT22;1560;52.746;13.474;2023-02-23T22:33:19;6.60;99.90
3100;DHT22;1560;52.746;13.474;2023-02-23T22:38:26;6.60;99.90
3100;DHT22;1560;52.746;13.474;2023-02-23T22:43:33;6.60;99.90
3100;DHT22;1560;52.746;13.474;2023-02-23T22:46:04;6.60;99.90
3100;DHT22;1560;52.746;13.474;2023-02-23T22:48:34;6.60;99.90
3100;DHT22;1560;52.746;13.474;2023-02-23T22:53:44;6.60;99.90
3100;DHT22;1560;52.746;13.474;2023-02-23T22:56:15;6.60;99.90
3100;DHT22;1560;52.746;13.474;2023-02-23T23:01:23;6.60;99.90
3100;DHT22;1560;52.746;13.474;2023-02-23T23:03:53;6.60;99.90
3100;DHT22;1560;52.746;13.474;2023-02-23T23:06:23;6.60;99.90
3100;DHT22;1560;52.746;13.474;2023-02-23T23:11:30;6.60;99.90
3100;DHT22;1560;52.746;13.474;2023-02-23T23:13:59;6.50;99.90
3100;DHT22;1560;52.746;13.474;2023-02-23T23:16:31;6.60;99.90
3100;DHT22;1560;52.746;13.474;2023-02-23T23:21:39;6.60;99.90
3100;DHT22;1560;52.746;13.474;2023-02-23T23:29:28;6.60;99.90
3100;DHT22;1560;52.746;13.474;2023-02-23T23:31:57;6.60;99.90
3100;DHT22;1560;52.746;13.474;2023-02-23T23:34:28;6.50;99.90
3100;DHT22;1560;52.746;13.474;2023-02-23T23:39:36;6.50;99.90
3100;DHT22;1560;52.746;13.474;2023-02-23T23:44:42;6.50;99.90
3100;DHT22;1560;52.746;13.474;2023-02-23T23:49:49;6.40;99.90
3100;DHT22;1560;52.746;13.474;2023-02-23T23:52:18;6.50;99.90
3100;DHT22;1560;52.746;13.474;2023-02-23T23:54:47;6.50;99.90